createdAt,value
2023-04-02T00:00:41.366Z,1007.31
2023-04-02T00:01:41.397Z,1007.33
2023-04-02T00:02:41.370Z,1007.35
2023-04-02T00:03:41.442Z,1007.36
2023-04-02T00:04:41.345Z,1007.38
2023-04-02T00:05:41.332Z,1007.41
2023-04-02T00:06:41.302Z,1007.40
2023-04-02T00:07:41.297Z,1007.48
2023-04-02T00:08:41.350Z,1007.46
2023-04-02T00:09:41.275Z,1007.46
2023-04-02T00:10:41.261Z,1007.47
2023-04-02T00:11:41.255Z,1007.49
2023-04-02T00:12:41.242Z,1007.49
2023-04-02T00:13:41.259Z,1007.47
2023-04-02T00:14:41.217Z,1007.49
2023-04-02T00:15:41.240Z,1007.53
2023-04-02T00:16:41.245Z,1007.52
2023-04-02T00:17:41.187Z,1007.52
2023-04-02T00:18:41.178Z,1007.53
2023-04-02T00:19:41.176Z,1007.55
2023-04-02T00:20:41.175Z,1007.52
2023-04-02T00:21:41.150Z,1007.55
2023-04-02T00:22:41.144Z,1007.55
2023-04-02T00:23:41.131Z,1007.58
2023-04-02T00:24:41.114Z,1007.57
2023-04-02T00:25:41.128Z,1007.52
2023-04-02T00:26:41.131Z,1007.61
2023-04-02T00:27:41.090Z,1007.64
2023-04-02T00:28:41.080Z,1007.61
2023-04-02T00:29:41.092Z,1007.61
2023-04-02T00:30:41.079Z,1007.59
2023-04-02T00:31:41.098Z,1007.64
2023-04-02T00:32:41.055Z,1007.68
2023-04-02T00:33:41.018Z,1007.61
2023-04-02T00:34:41.012Z,1007.73
2023-04-02T00:35:41.017Z,1007.69
2023-04-02T00:36:40.989Z,1007.72
2023-04-02T00:37:40.984Z,1007.77
2023-04-02T00:38:40.962Z,1007.74
2023-04-02T00:39:40.951Z,1007.76
2023-04-02T00:40:40.956Z,1007.72
2023-04-02T00:41:40.932Z,1007.81
2023-04-02T00:42:40.923Z,1007.79
2023-04-02T00:43:40.905Z,1007.84
2023-04-02T00:44:40.905Z,1007.86
2023-04-02T00:45:40.919Z,1007.88
2023-04-02T00:46:40.889Z,1007.87
2023-04-02T00:47:40.895Z,1007.90
2023-04-02T00:48:40.874Z,1007.87
2023-04-02T00:49:40.843Z,1007.93
2023-04-02T00:50:40.853Z,1007.93
2023-04-02T00:51:40.825Z,1007.93
2023-04-02T00:52:40.818Z,1007.93
2023-04-02T00:53:40.830Z,1007.93
2023-04-02T00:54:40.800Z,1007.95
2023-04-02T00:55:40.796Z,1007.96
2023-04-02T00:56:40.807Z,1007.95
2023-04-02T00:57:40.766Z,1007.97
2023-04-02T00:58:40.777Z,1008.04
2023-04-02T00:59:40.739Z,1008.05
2023-04-02T01:00:40.741Z,1008.03
2023-04-02T01:01:40.790Z,1008.05
2023-04-02T01:02:40.908Z,1008.04
2023-04-02T01:03:40.826Z,1008.01
2023-04-02T01:04:40.689Z,1008.00
2023-04-02T01:05:40.675Z,1008.01
2023-04-02T01:06:40.667Z,1008.10
2023-04-02T01:07:40.675Z,1007.99
2023-04-02T01:08:40.669Z,1008.10
2023-04-02T01:09:40.640Z,1008.07
2023-04-02T01:10:40.627Z,1008.10
2023-04-02T01:11:40.607Z,1008.10
2023-04-02T01:12:40.610Z,1008.14
2023-04-02T01:13:40.627Z,1008.06
2023-04-02T01:14:40.593Z,1008.15
2023-04-02T01:15:40.615Z,1008.20
2023-04-02T01:16:40.565Z,1008.16
2023-04-02T01:17:40.557Z,1008.21
2023-04-02T01:18:40.542Z,1008.25
2023-04-02T01:19:40.526Z,1008.23
2023-04-02T01:20:40.546Z,1008.25
2023-04-02T01:21:40.506Z,1008.29
2023-04-02T01:22:40.493Z,1008.32
2023-04-02T01:23:40.475Z,1008.36
2023-04-02T01:24:40.486Z,1008.37
2023-04-02T01:25:40.472Z,1008.37
2023-04-02T01:26:40.458Z,1008.40
2023-04-02T01:27:40.453Z,1008.37
2023-04-02T01:28:40.443Z,1008.43
2023-04-02T01:29:40.435Z,1008.42
2023-04-02T01:30:40.442Z,1008.46
2023-04-02T01:31:40.426Z,1008.47
2023-04-02T01:32:40.440Z,1008.51
2023-04-02T01:33:40.384Z,1008.51
2023-04-02T01:34:40.389Z,1008.54
2023-04-02T01:35:40.418Z,1008.49
2023-04-02T01:36:40.345Z,1008.51
2023-04-02T01:37:40.347Z,1008.57
2023-04-02T01:38:40.345Z,1008.58
2023-04-02T01:39:40.334Z,1008.59
2023-04-02T01:40:40.335Z,1008.65
2023-04-02T01:41:40.294Z,1008.60
2023-04-02T01:42:40.290Z,1008.62
2023-04-02T01:43:40.272Z,1008.63
2023-04-02T01:44:40.270Z,1008.68
2023-04-02T01:45:40.270Z,1008.68
2023-04-02T01:46:40.392Z,1008.71
2023-04-02T01:47:40.244Z,1008.69
2023-04-02T01:48:40.223Z,1008.71
2023-04-02T01:49:40.240Z,1008.77
2023-04-02T01:50:40.286Z,1008.77
2023-04-02T01:51:40.185Z,1008.80
2023-04-02T01:52:40.173Z,1008.81
2023-04-02T01:53:40.280Z,1008.81
2023-04-02T01:54:40.158Z,1008.82
2023-04-02T01:55:40.158Z,1008.88
2023-04-02T01:56:40.143Z,1008.88
2023-04-02T01:57:40.143Z,1008.92
2023-04-02T01:58:40.121Z,1008.93
2023-04-02T01:59:40.124Z,1008.98
2023-04-02T02:00:40.152Z,1008.95
2023-04-02T02:01:40.070Z,1009.00
2023-04-02T02:02:40.199Z,1008.99
2023-04-02T02:03:40.054Z,1009.01
2023-04-02T02:04:40.045Z,1009.04
2023-04-02T02:05:40.054Z,1009.03
2023-04-02T02:06:40.028Z,1009.07
2023-04-02T02:07:40.018Z,1009.09
2023-04-02T02:08:40.018Z,1009.13
2023-04-02T02:09:40.001Z,1009.14
2023-04-02T02:10:40.011Z,1009.17
2023-04-02T02:11:39.976Z,1009.19
2023-04-02T02:12:39.964Z,1009.22
2023-04-02T02:13:41.996Z,1009.21
2023-04-02T02:14:39.944Z,1009.23
2023-04-02T02:15:39.945Z,1009.26
2023-04-02T02:16:39.999Z,1009.26
2023-04-02T02:17:39.945Z,1009.25
2023-04-02T02:18:39.914Z,1009.28
2023-04-02T02:19:39.888Z,1009.33
2023-04-02T02:20:39.887Z,1009.35
2023-04-02T02:21:39.874Z,1009.34
2023-04-02T02:22:39.858Z,1009.38
2023-04-02T02:23:39.873Z,1009.39
2023-04-02T02:24:39.848Z,1009.41
2023-04-02T02:25:39.846Z,1009.42
2023-04-02T02:26:39.810Z,1009.43
2023-04-02T02:27:39.800Z,1009.43
2023-04-02T02:28:39.794Z,1009.45
2023-04-02T02:29:39.776Z,1009.47
2023-04-02T02:30:39.794Z,1009.49
2023-04-02T02:31:39.805Z,1009.48
2023-04-02T02:32:39.795Z,1009.54
2023-04-02T02:33:39.738Z,1009.52
2023-04-02T02:34:39.746Z,1009.54
2023-04-02T02:35:39.739Z,1009.52
2023-04-02T02:36:39.705Z,1009.56
2023-04-02T02:37:39.707Z,1009.60
2023-04-02T02:38:39.703Z,1009.59
2023-04-02T02:39:39.672Z,1009.62
2023-04-02T02:40:39.672Z,1009.63
2023-04-02T02:41:39.652Z,1009.66
2023-04-02T02:42:39.642Z,1009.69
2023-04-02T02:43:39.632Z,1009.73
2023-04-02T02:44:39.629Z,1009.76
2023-04-02T02:45:39.667Z,1009.75
2023-04-02T02:46:39.610Z,1009.74
2023-04-02T02:47:39.617Z,1009.78
2023-04-02T02:48:39.607Z,1009.81
2023-04-02T02:49:39.558Z,1009.84
2023-04-02T02:50:39.556Z,1009.87
2023-04-02T02:51:39.550Z,1009.87
2023-04-02T02:52:39.531Z,1009.87
2023-04-02T02:53:39.532Z,1009.91
2023-04-02T02:54:39.510Z,1009.95
2023-04-02T02:55:39.504Z,1009.94
2023-04-02T02:56:39.488Z,1009.96
2023-04-02T02:57:39.476Z,1009.92
2023-04-02T02:58:39.466Z,1010.01
2023-04-02T02:59:39.452Z,1010.03
2023-04-02T03:00:39.476Z,1010.06
2023-04-02T03:01:39.461Z,1010.04
2023-04-02T03:02:39.564Z,1010.07
2023-04-02T03:03:39.564Z,1010.09
2023-04-02T03:04:39.409Z,1010.11
2023-04-02T03:05:39.405Z,1010.13
2023-04-02T03:06:39.392Z,1010.18
2023-04-02T03:07:39.375Z,1010.18
2023-04-02T03:08:39.378Z,1010.22
2023-04-02T03:09:39.359Z,1010.23
2023-04-02T03:10:39.352Z,1010.23
2023-04-02T03:11:39.342Z,1010.26
2023-04-02T03:12:39.321Z,1010.27
2023-04-02T03:13:39.347Z,1010.28
2023-04-02T03:14:39.317Z,1010.31
2023-04-02T03:15:39.346Z,1010.33
2023-04-02T03:16:39.289Z,1010.33
2023-04-02T03:17:39.274Z,1010.35
2023-04-02T03:18:39.283Z,1010.34
2023-04-02T03:19:39.243Z,1010.41
2023-04-02T03:20:39.235Z,1010.41
2023-04-02T03:21:39.219Z,1010.35
2023-04-02T03:22:39.217Z,1010.41
2023-04-02T03:23:39.209Z,1010.46
2023-04-02T03:24:39.189Z,1010.42
2023-04-02T03:25:39.183Z,1010.46
2023-04-02T03:26:39.199Z,1010.48
2023-04-02T03:27:39.152Z,1010.45
2023-04-02T03:28:39.159Z,1010.46
2023-04-02T03:29:39.148Z,1010.46
2023-04-02T03:30:39.133Z,1010.47
2023-04-02T03:31:39.191Z,1010.54
2023-04-02T03:32:39.137Z,1010.60
2023-04-02T03:33:39.090Z,1010.57
2023-04-02T03:34:39.094Z,1010.61
2023-04-02T03:35:39.158Z,1010.63
2023-04-02T03:36:39.092Z,1010.60
2023-04-02T03:37:39.065Z,1010.63
2023-04-02T03:38:39.048Z,1010.65
2023-04-02T03:39:39.038Z,1010.70
2023-04-02T03:40:39.021Z,1010.74
2023-04-02T03:41:39.027Z,1010.70
2023-04-02T03:42:39.003Z,1010.75
2023-04-02T03:43:39.025Z,1010.78
2023-04-02T03:44:39.003Z,1010.79
2023-04-02T03:45:38.964Z,1010.80
2023-04-02T03:46:39.018Z,1010.80
2023-04-02T03:47:38.985Z,1010.82
2023-04-02T03:48:38.935Z,1010.84
2023-04-02T03:49:38.923Z,1010.79
2023-04-02T03:50:38.917Z,1010.81
2023-04-02T03:51:38.965Z,1010.84
2023-04-02T03:52:38.904Z,1010.88
2023-04-02T03:53:38.879Z,1010.89
2023-04-02T03:54:38.870Z,1010.93
2023-04-02T03:55:38.897Z,1010.92
2023-04-02T03:56:38.871Z,1010.94
2023-04-02T03:57:38.852Z,1010.95
2023-04-02T03:58:38.843Z,1010.97
2023-04-02T03:59:38.809Z,1011.00
2023-04-02T04:00:38.809Z,1011.04
2023-04-02T04:01:38.857Z,1010.99
2023-04-02T04:02:38.819Z,1011.05
2023-04-02T04:03:38.782Z,1011.02
2023-04-02T04:04:38.763Z,1011.04
2023-04-02T04:05:38.775Z,1011.08
2023-04-02T04:06:38.770Z,1011.11
2023-04-02T04:07:38.728Z,1011.14
2023-04-02T04:08:38.722Z,1011.17
2023-04-02T04:09:38.714Z,1011.16
2023-04-02T04:10:38.701Z,1011.17
2023-04-02T04:11:38.716Z,1011.20
2023-04-02T04:12:38.709Z,1011.20
2023-04-02T04:13:38.670Z,1011.25
2023-04-02T04:14:38.678Z,1011.24
2023-04-02T04:15:38.596Z,1011.28
2023-04-02T04:16:38.708Z,1011.26
2023-04-02T04:17:38.694Z,1011.30
2023-04-02T04:18:38.580Z,1011.33
2023-04-02T04:19:38.552Z,1011.38
2023-04-02T04:20:38.566Z,1011.40
2023-04-02T04:21:38.635Z,1011.38
2023-04-02T04:22:38.532Z,1011.41
2023-04-02T04:23:38.538Z,1011.44
2023-04-02T04:24:38.540Z,1011.45
2023-04-02T04:25:38.498Z,1011.48
2023-04-02T04:26:38.502Z,1011.50
2023-04-02T04:27:38.479Z,1011.52
2023-04-02T04:28:38.652Z,1011.53
2023-04-02T04:29:38.448Z,1011.52
2023-04-02T04:30:38.448Z,1011.52
2023-04-02T04:31:38.486Z,1011.54
2023-04-02T04:32:38.501Z,1011.56
2023-04-02T04:33:38.415Z,1011.60
2023-04-02T04:34:38.410Z,1011.60
2023-04-02T04:35:38.866Z,1011.61
2023-04-02T04:36:38.398Z,1011.63
2023-04-02T04:37:38.353Z,1011.63
2023-04-02T04:38:38.353Z,1011.67
2023-04-02T04:39:38.352Z,1011.69
2023-04-02T04:40:38.341Z,1011.71
2023-04-02T04:41:38.351Z,1011.76
2023-04-02T04:42:38.316Z,1011.75
2023-04-02T04:43:38.300Z,1011.78
2023-04-02T04:44:38.295Z,1011.80
2023-04-02T04:45:38.321Z,1011.81
2023-04-02T04:46:38.299Z,1011.84
2023-04-02T04:47:38.343Z,1011.85
2023-04-02T04:48:38.249Z,1011.87
2023-04-02T04:49:38.241Z,1011.86
2023-04-02T04:50:38.229Z,1011.90
2023-04-02T04:51:38.254Z,1011.91
2023-04-02T04:52:38.230Z,1011.93
2023-04-02T04:53:38.218Z,1011.93
2023-04-02T04:54:38.188Z,1011.94
2023-04-02T04:55:38.311Z,1011.96
2023-04-02T04:56:38.172Z,1011.99
2023-04-02T04:57:38.159Z,1011.99
2023-04-02T04:58:38.140Z,1012.01
2023-04-02T04:59:38.128Z,1012.02
2023-04-02T05:00:38.133Z,1012.05
2023-04-02T05:01:38.229Z,1012.06
2023-04-02T05:02:38.139Z,1012.05
2023-04-02T05:03:38.089Z,1012.07
2023-04-02T05:04:38.149Z,1012.09
2023-04-02T05:05:38.069Z,1012.14
2023-04-02T05:06:38.073Z,1012.12
2023-04-02T05:07:38.050Z,1012.17
2023-04-02T05:08:38.057Z,1012.19
2023-04-02T05:09:38.029Z,1012.18
2023-04-02T05:10:38.033Z,1012.22
2023-04-02T05:11:38.025Z,1012.25
2023-04-02T05:12:38.000Z,1012.28
2023-04-02T05:13:37.988Z,1012.32
2023-04-02T05:14:37.969Z,1012.33
2023-04-02T05:15:38.302Z,1012.36
2023-04-02T05:16:38.154Z,1012.37
2023-04-02T05:17:37.975Z,1012.39
2023-04-02T05:18:37.948Z,1012.43
2023-04-02T05:19:37.924Z,1012.45
2023-04-02T05:20:37.935Z,1012.46
2023-04-02T05:21:37.927Z,1012.48
2023-04-02T05:22:39.523Z,1012.47
2023-04-02T05:23:37.880Z,1012.52
2023-04-02T05:24:37.864Z,1012.51
2023-04-02T05:25:38.041Z,1012.47
2023-04-02T05:26:37.868Z,1012.54
2023-04-02T05:27:37.849Z,1012.57
2023-04-02T05:28:37.876Z,1012.55
2023-04-02T05:29:37.821Z,1012.54
2023-04-02T05:30:37.809Z,1012.58
2023-04-02T05:31:37.830Z,1012.60
2023-04-02T05:32:37.828Z,1012.64
2023-04-02T05:33:37.799Z,1012.67
2023-04-02T05:34:37.783Z,1012.64
2023-04-02T05:35:38.078Z,1012.69
2023-04-02T05:36:37.748Z,1012.66
2023-04-02T05:37:37.734Z,1012.67
2023-04-02T05:38:37.782Z,1012.70
2023-04-02T05:39:37.756Z,1012.69
2023-04-02T05:40:37.693Z,1012.69
2023-04-02T05:41:37.709Z,1012.68
2023-04-02T05:42:37.686Z,1012.74
2023-04-02T05:43:37.671Z,1012.78
2023-04-02T05:44:39.125Z,1012.78
2023-04-02T05:45:37.872Z,1012.71
2023-04-02T05:46:37.655Z,1012.82
2023-04-02T05:47:37.723Z,1012.79
2023-04-02T05:48:37.610Z,1012.77
2023-04-02T05:49:37.609Z,1012.86
2023-04-02T05:50:37.831Z,1012.87
2023-04-02T05:51:37.607Z,1012.84
2023-04-02T05:52:37.584Z,1012.86
2023-04-02T05:53:37.559Z,1012.92
2023-04-02T05:54:37.548Z,1012.93
2023-04-02T05:55:37.599Z,1012.94
2023-04-02T05:56:43.561Z,1012.95
2023-04-02T05:57:44.620Z,1013.00
2023-04-02T05:58:37.579Z,1013.00
2023-04-02T05:59:37.499Z,1012.99
2023-04-02T06:00:37.481Z,1013.02
2023-04-02T06:01:37.629Z,1013.05
2023-04-02T06:02:37.681Z,1013.06
2023-04-02T06:03:37.602Z,1013.08
2023-04-02T06:04:37.442Z,1013.08
2023-04-02T06:05:37.569Z,1013.10
2023-04-02T06:06:37.440Z,1013.15
2023-04-02T06:07:37.410Z,1013.15
2023-04-02T06:08:37.440Z,1013.16
2023-04-02T06:09:37.440Z,1013.22
2023-04-02T06:10:37.381Z,1013.17
2023-04-02T06:11:37.446Z,1013.24
2023-04-02T06:12:37.365Z,1013.21
2023-04-02T06:13:37.353Z,1013.28
2023-04-02T06:14:37.383Z,1013.26
2023-04-02T06:15:37.467Z,1013.34
2023-04-02T06:16:37.353Z,1013.24
2023-04-02T06:17:37.332Z,1013.33
2023-04-02T06:18:37.318Z,1013.32
2023-04-02T06:19:37.403Z,1013.36
2023-04-02T06:20:37.274Z,1013.38
2023-04-02T06:21:37.289Z,1013.39
2023-04-02T06:22:37.257Z,1013.40
2023-04-02T06:23:37.264Z,1013.41
2023-04-02T06:24:37.251Z,1013.44
2023-04-02T06:25:37.449Z,1013.43
2023-04-02T06:26:37.244Z,1013.44
2023-04-02T06:27:37.213Z,1013.49
2023-04-02T06:28:37.185Z,1013.51
2023-04-02T06:29:37.210Z,1013.49
2023-04-02T06:30:37.225Z,1013.53
2023-04-02T06:31:37.206Z,1013.55
2023-04-02T06:32:37.191Z,1013.55
2023-04-02T06:33:37.186Z,1013.57
2023-04-02T06:34:37.114Z,1013.58
2023-04-02T06:35:37.516Z,1013.62
2023-04-02T06:36:37.163Z,1013.64
2023-04-02T06:37:37.093Z,1013.66
2023-04-02T06:38:37.086Z,1013.64
2023-04-02T06:39:37.072Z,1013.62
2023-04-02T06:40:37.079Z,1013.70
2023-04-02T06:41:37.098Z,1013.73
2023-04-02T06:42:37.052Z,1013.72
2023-04-02T06:43:37.053Z,1013.77
2023-04-02T06:44:37.091Z,1013.76
2023-04-02T06:45:37.236Z,1013.80
2023-04-02T06:46:37.026Z,1013.82
2023-04-02T06:47:37.008Z,1013.82
2023-04-02T06:48:36.978Z,1013.86
2023-04-02T06:49:36.981Z,1013.82
2023-04-02T06:50:36.963Z,1013.83
2023-04-02T06:51:36.956Z,1013.89
2023-04-02T06:52:36.953Z,1013.90
2023-04-02T06:53:36.948Z,1013.86
2023-04-02T06:54:36.913Z,1013.91
2023-04-02T06:55:37.186Z,1013.92
2023-04-02T06:56:36.884Z,1014.01
2023-04-02T06:57:36.937Z,1014.02
2023-04-02T06:58:36.865Z,1014.03
2023-04-02T06:59:36.878Z,1014.02
2023-04-02T07:00:36.844Z,1014.05
2023-04-02T07:01:36.923Z,1014.07
2023-04-02T07:02:36.902Z,1014.06
2023-04-02T07:03:36.845Z,1014.10
2023-04-02T07:04:36.807Z,1014.05
2023-04-02T07:05:37.131Z,1014.09
2023-04-02T07:06:36.846Z,1014.11
2023-04-02T07:07:36.849Z,1014.16
2023-04-02T07:08:36.893Z,1014.17
2023-04-02T07:09:36.769Z,1014.10
2023-04-02T07:10:36.742Z,1014.14
2023-04-02T07:11:36.719Z,1014.17
2023-04-02T07:12:36.739Z,1014.15
2023-04-02T07:13:36.716Z,1014.18
2023-04-02T07:14:36.691Z,1014.16
2023-04-02T07:15:36.994Z,1014.19
2023-04-02T07:16:36.671Z,1014.16
2023-04-02T07:17:36.729Z,1014.17
2023-04-02T07:18:36.676Z,1014.16
2023-04-02T07:19:36.635Z,1014.18
2023-04-02T07:20:36.636Z,1014.18
2023-04-02T07:21:36.627Z,1014.22
2023-04-02T07:22:36.613Z,1014.19
2023-04-02T07:23:36.612Z,1014.18
2023-04-02T07:24:36.581Z,1014.23
2023-04-02T07:25:36.771Z,1014.19
2023-04-02T07:26:36.553Z,1014.23
2023-04-02T07:27:36.561Z,1014.28
2023-04-02T07:28:36.571Z,1014.22
2023-04-02T07:29:36.526Z,1014.26
2023-04-02T07:30:36.524Z,1014.27
2023-04-02T07:31:36.574Z,1014.31
2023-04-02T07:32:36.563Z,1014.30
2023-04-02T07:33:36.500Z,1014.31
2023-04-02T07:34:36.511Z,1014.32
2023-04-02T07:35:36.782Z,1014.25
2023-04-02T07:36:36.466Z,1014.33
2023-04-02T07:37:36.472Z,1014.35
2023-04-02T07:38:36.432Z,1014.32
2023-04-02T07:39:38.340Z,1014.34
2023-04-02T07:40:36.410Z,1014.33
2023-04-02T07:41:36.409Z,1014.35
2023-04-02T07:42:36.437Z,1014.34
2023-04-02T07:43:36.403Z,1014.43
2023-04-02T07:44:36.372Z,1014.41
2023-04-02T07:45:36.687Z,1014.46
2023-04-02T07:46:36.411Z,1014.45
2023-04-02T07:47:36.370Z,1014.47
2023-04-02T07:48:36.348Z,1014.47
2023-04-02T07:49:36.323Z,1014.49
2023-04-02T07:50:36.315Z,1014.52
2023-04-02T07:51:36.327Z,1014.53
2023-04-02T07:52:37.207Z,1014.56
2023-04-02T07:53:36.314Z,1014.64
2023-04-02T07:54:36.272Z,1014.62
2023-04-02T07:55:36.660Z,1014.66
2023-04-02T07:56:36.239Z,1014.63
2023-04-02T07:57:36.302Z,1014.66
2023-04-02T07:58:36.235Z,1014.72
2023-04-02T07:59:36.240Z,1014.73
2023-04-02T08:00:36.232Z,1014.77
2023-04-02T08:01:36.233Z,1014.80
2023-04-02T08:02:36.328Z,1014.81
2023-04-02T08:03:36.321Z,1014.80
2023-04-02T08:04:36.237Z,1014.91
2023-04-02T08:05:36.441Z,1014.90
2023-04-02T08:06:36.160Z,1014.91
2023-04-02T08:07:36.175Z,1014.89
2023-04-02T08:08:36.166Z,1014.95
2023-04-02T08:09:36.153Z,1014.96
2023-04-02T08:10:36.109Z,1014.96
2023-04-02T08:11:36.089Z,1014.99
2023-04-02T08:12:36.169Z,1014.98
2023-04-02T08:13:36.074Z,1015.03
2023-04-02T08:14:36.103Z,1015.04
2023-04-02T08:15:36.293Z,1015.03
2023-04-02T08:16:36.120Z,1015.06
2023-04-02T08:17:36.094Z,1015.09
2023-04-02T08:18:36.024Z,1015.04
2023-04-02T08:19:47.806Z,1015.09
2023-04-02T08:20:36.003Z,1015.08
2023-04-02T08:21:36.007Z,1015.07
2023-04-02T08:22:36.017Z,1015.13
2023-04-02T08:23:35.963Z,1015.15
2023-04-02T08:24:35.952Z,1015.13
2023-04-02T08:25:36.178Z,1015.12
2023-04-02T08:26:35.934Z,1015.13
2023-04-02T08:27:36.014Z,1015.13
2023-04-02T08:28:35.923Z,1015.16
2023-04-02T08:29:35.905Z,1015.15
2023-04-02T08:30:35.944Z,1015.19
2023-04-02T08:31:35.896Z,1015.21
2023-04-02T08:32:35.993Z,1015.21
2023-04-02T08:33:35.931Z,1015.23
2023-04-02T08:34:35.866Z,1015.22
2023-04-02T08:35:36.247Z,1015.22
2023-04-02T08:36:35.831Z,1015.26
2023-04-02T08:37:35.833Z,1015.27
2023-04-02T08:38:35.802Z,1015.29
2023-04-02T08:39:35.794Z,1015.33
2023-04-02T08:40:35.805Z,1015.37
2023-04-02T08:41:35.789Z,1015.35
2023-04-02T08:42:35.795Z,1015.38
2023-04-02T08:43:35.770Z,1015.45
2023-04-02T08:44:35.748Z,1015.45
2023-04-02T08:45:35.758Z,1015.42
2023-04-02T08:46:35.776Z,1015.44
2023-04-02T08:47:35.815Z,1015.45
2023-04-02T08:48:35.705Z,1015.46
2023-04-02T08:49:35.694Z,1015.51
2023-04-02T08:50:35.696Z,1015.49
2023-04-02T08:51:35.702Z,1015.50
2023-04-02T08:52:35.712Z,1015.53
2023-04-02T08:53:35.665Z,1015.54
2023-04-02T08:54:35.663Z,1015.57
2023-04-02T08:55:35.865Z,1015.57
2023-04-02T08:56:35.674Z,1015.64
2023-04-02T08:57:35.744Z,1015.58
2023-04-02T08:58:35.595Z,1015.64
2023-04-02T08:59:35.600Z,1015.65
2023-04-02T09:00:37.447Z,1015.70
2023-04-02T09:01:35.593Z,1015.73
2023-04-02T09:02:35.708Z,1015.73
2023-04-02T09:03:35.569Z,1015.74
2023-04-02T09:04:35.552Z,1015.79
2023-04-02T09:05:35.678Z,1015.80
2023-04-02T09:06:35.517Z,1015.82
2023-04-02T09:07:35.537Z,1015.86
2023-04-02T09:08:35.507Z,1015.88
2023-04-02T09:09:35.497Z,1015.90
2023-04-02T09:10:35.473Z,1015.91
2023-04-02T09:11:35.463Z,1015.96
2023-04-02T09:12:35.482Z,1015.98
2023-04-02T09:13:35.437Z,1015.95
2023-04-02T09:14:35.477Z,1015.94
2023-04-02T09:15:35.574Z,1015.94
2023-04-02T09:16:35.411Z,1015.93
2023-04-02T09:17:50.722Z,1015.95
2023-04-02T09:18:35.447Z,1015.93
2023-04-02T09:19:35.381Z,1015.89
2023-04-02T09:20:35.377Z,1015.91
2023-04-02T09:21:35.379Z,1015.91
2023-04-02T09:22:35.369Z,1015.97
2023-04-02T09:23:35.340Z,1015.95
2023-04-02T09:24:35.325Z,1015.97
2023-04-02T09:25:35.675Z,1015.96
2023-04-02T09:26:35.336Z,1015.99
2023-04-02T09:27:35.329Z,1016.03
2023-04-02T09:28:35.280Z,1016.04
2023-04-02T09:29:35.281Z,1016.04
2023-04-02T09:30:35.273Z,1016.04
2023-04-02T09:31:35.288Z,1016.09
2023-04-02T09:32:35.370Z,1016.04
2023-04-02T09:33:35.273Z,1016.08
2023-04-02T09:34:35.237Z,1016.09
2023-04-02T09:35:35.212Z,1016.10
2023-04-02T09:36:35.275Z,1016.12
2023-04-02T09:37:35.203Z,1016.06
2023-04-02T09:38:35.195Z,1016.12
2023-04-02T09:39:35.193Z,1016.16
2023-04-02T09:40:35.165Z,1016.16
2023-04-02T09:41:36.705Z,1016.19
2023-04-02T09:42:35.178Z,1016.19
2023-04-02T09:43:35.148Z,1016.19
2023-04-02T09:44:35.147Z,1016.22
2023-04-02T09:45:35.299Z,1016.25
2023-04-02T09:46:35.214Z,1016.31
2023-04-02T09:47:35.822Z,1016.34
2023-04-02T09:48:35.079Z,1016.36
2023-04-02T09:49:35.070Z,1016.35
2023-04-02T09:50:35.114Z,1016.36
2023-04-02T09:51:35.041Z,1016.33
2023-04-02T09:52:35.057Z,1016.32
2023-04-02T09:53:35.013Z,1016.34
2023-04-02T09:54:35.096Z,1016.37
2023-04-02T09:55:35.115Z,1016.39
2023-04-02T09:56:34.993Z,1016.36
2023-04-02T09:57:35.072Z,1016.41
2023-04-02T09:58:34.974Z,1016.43
2023-04-02T09:59:34.950Z,1016.43
2023-04-02T10:00:34.976Z,1016.45
2023-04-02T10:01:35.190Z,1016.46
2023-04-02T10:02:35.079Z,1016.47
2023-04-02T10:03:35.060Z,1016.48
2023-04-02T10:04:34.968Z,1016.43
2023-04-02T10:06:34.967Z,1016.54
2023-04-02T10:07:34.925Z,1016.53
2023-04-02T10:08:34.930Z,1016.53
2023-04-02T10:09:34.879Z,1016.58
2023-04-02T10:10:35.025Z,1016.59
2023-04-02T10:11:46.232Z,1016.60
2023-04-02T10:12:34.875Z,1016.62
2023-04-02T10:13:34.920Z,1016.61
2023-04-02T10:14:34.867Z,1016.65
2023-04-02T10:15:35.142Z,1016.66
2023-04-02T10:16:34.837Z,1016.69
2023-04-02T10:17:34.835Z,1016.71
2023-04-02T10:18:34.770Z,1016.74
2023-04-02T10:19:34.740Z,1016.68
2023-04-02T10:20:41.719Z,1016.71
2023-04-02T10:21:34.745Z,1016.70
2023-04-02T10:22:34.718Z,1016.75
2023-04-02T10:23:34.710Z,1016.74
2023-04-02T10:24:34.696Z,1016.75
2023-04-02T10:25:34.811Z,1016.75
2023-04-02T10:26:34.698Z,1016.79
2023-04-02T10:27:34.653Z,1016.79
2023-04-02T10:28:34.689Z,1016.79
2023-04-02T10:29:34.746Z,1016.80
2023-04-02T10:30:34.685Z,1016.81
2023-04-02T10:31:34.616Z,1016.85
2023-04-02T10:32:34.653Z,1016.84
2023-04-02T10:33:34.711Z,1016.84
2023-04-02T10:34:34.583Z,1016.85
2023-04-02T10:35:34.924Z,1016.89
2023-04-02T10:36:34.590Z,1016.88
2023-04-02T10:37:34.554Z,1016.90
2023-04-02T10:38:34.571Z,1016.90
2023-04-02T10:39:34.553Z,1016.89
2023-04-02T10:40:34.528Z,1016.94
2023-04-02T10:41:34.539Z,1016.90
2023-04-02T10:42:34.509Z,1016.91
2023-04-02T10:43:34.529Z,1016.94
2023-04-02T10:44:34.483Z,1016.93
2023-04-02T10:45:34.680Z,1016.93
2023-04-02T10:46:34.481Z,1016.92
2023-04-02T10:47:34.523Z,1016.92
2023-04-02T10:48:34.467Z,1016.98
2023-04-02T10:49:34.465Z,1017.01
2023-04-02T10:50:34.423Z,1017.02
2023-04-02T10:51:34.404Z,1016.99
2023-04-02T10:52:34.410Z,1017.03
2023-04-02T10:53:34.480Z,1017.03
2023-04-02T10:54:34.388Z,1017.06
2023-04-02T10:55:34.691Z,1017.09
2023-04-02T10:56:44.110Z,1017.11
2023-04-02T10:57:34.613Z,1017.10
2023-04-02T10:58:34.377Z,1017.15
2023-04-02T10:59:34.387Z,1017.13
2023-04-02T11:00:34.322Z,1017.15
2023-04-02T11:01:34.564Z,1017.12
2023-04-02T11:02:34.386Z,1017.11
2023-04-02T11:03:34.361Z,1017.14
2023-04-02T11:04:34.279Z,1017.18
2023-04-02T11:05:34.505Z,1017.18
2023-04-02T11:06:34.253Z,1017.19
2023-04-02T11:07:34.245Z,1017.19
2023-04-02T11:08:34.257Z,1017.23
2023-04-02T11:09:34.223Z,1017.22
2023-04-02T11:10:34.212Z,1017.25
2023-04-02T11:11:34.199Z,1017.28
2023-04-02T11:12:36.529Z,1017.30
2023-04-02T11:13:34.222Z,1017.38
2023-04-02T11:14:34.211Z,1017.34
2023-04-02T11:15:34.437Z,1017.35
2023-04-02T11:16:35.552Z,1017.41
2023-04-02T11:17:34.142Z,1017.42
2023-04-02T11:18:34.156Z,1017.48
2023-04-02T11:19:34.116Z,1017.47
2023-04-02T11:20:34.110Z,1017.51
2023-04-02T11:21:34.879Z,1017.52
2023-04-02T11:22:34.088Z,1017.53
2023-04-02T11:23:34.099Z,1017.57
2023-04-02T11:24:34.173Z,1017.56
2023-04-02T11:25:34.202Z,1017.61
2023-04-02T11:26:34.039Z,1017.59
2023-04-02T11:27:34.033Z,1017.59
2023-04-02T11:28:34.057Z,1017.63
2023-04-02T11:29:34.025Z,1017.61
2023-04-02T11:30:34.015Z,1017.61
2023-04-02T11:31:34.045Z,1017.60
2023-04-02T11:32:34.002Z,1017.71
2023-04-02T11:34:33.990Z,1017.68
2023-04-02T11:35:34.131Z,1017.70
2023-04-02T11:36:33.929Z,1017.71
2023-04-02T11:37:33.937Z,1017.72
2023-04-02T11:38:33.976Z,1017.73
2023-04-02T11:39:33.913Z,1017.74
2023-04-02T11:40:33.975Z,1017.76
2023-04-02T11:41:33.919Z,1017.76
2023-04-02T11:42:33.888Z,1017.77
2023-04-02T11:43:33.886Z,1017.74
2023-04-02T11:44:33.866Z,1017.78
2023-04-02T11:45:40.229Z,1017.78
2023-04-02T11:46:33.920Z,1017.79
2023-04-02T11:47:33.875Z,1017.77
2023-04-02T11:48:33.836Z,1017.74
2023-04-02T11:49:33.794Z,1017.73
2023-04-02T11:50:33.796Z,1017.65
2023-04-02T11:51:33.774Z,1017.68
2023-04-02T11:52:33.777Z,1017.67
2023-04-02T11:53:33.779Z,1017.67
2023-04-02T11:54:33.766Z,1017.73
2023-04-02T11:55:33.816Z,1017.74
2023-04-02T11:56:33.722Z,1017.76
2023-04-02T11:57:39.790Z,1017.75
2023-04-02T11:58:34.467Z,1017.74
2023-04-02T11:59:34.409Z,1017.77
2023-04-02T12:00:33.855Z,1017.79
2023-04-02T12:01:33.667Z,1017.80
2023-04-02T12:02:33.775Z,1017.83
2023-04-02T12:03:33.665Z,1017.82
2023-04-02T12:04:33.637Z,1017.84
2023-04-02T12:05:33.821Z,1017.83
2023-04-02T12:06:33.638Z,1017.83
2023-04-02T12:07:33.603Z,1017.85